Time;durP1;ratioP1;P1;durP2;ratioP2;P2;SDS_P1;SDS_P2;PMS_P1;PMS_P2;Temp;Humidity;BMP_temperature;BMP_pressure;BME280_temperature;BME280_humidity;BME280_pressure;Samples;Min_cycle;Max_cycle;Signal;HPM_P1;HPM_P2
2023/12/19 05:04:16;;;;;;;21.12;12.10;;;;;;;-1.94;100.00;68280.66;5270484;33;20000;-85
2023/12/19 05:07:19;;;;;;;25.62;12.50;;;;;;;-2.17;100.00;68251.59;5271886;33;33476;-85
2023/12/19 05:10:22;;;;;;;25.98;12.27;;;;;;;-2.09;100.00;68261.38;5271804;33;33655;-85
2023/12/19 05:13:26;;;;;;;25.17;11.60;;;;;;;-2.14;100.00;68255.63;5273184;33;33058;-84
2023/12/19 05:16:29;;;;;;;23.95;11.00;;;;;;;-2.28;100.00;68247.41;5271618;33;34307;-85
2023/12/19 05:19:32;;;;;;;20.83;10.80;;;;;;;-2.21;100.00;68252.25;5271708;33;33637;-85
2023/12/19 05:22:48;;;;;;;19.08;9.57;;;;;;;-2.19;100.00;68249.31;5261472;33;33473;-85
2023/12/19 05:25:51;;;;;;;21.45;10.88;;;;;;;-2.00;100.00;68275.81;5272154;33;33542;-85
2023/12/19 05:28:54;;;;;;;21.37;10.30;;;;;;;-2.10;100.00;68262.28;5284037;33;34277;-84
2023/12/19 05:31:59;;;;;;;23.90;9.60;;;;;;;-2.15;100.00;68256.53;5260729;33;33434;-85
2023/12/19 05:35:02;;;;;;;22.98;11.30;;;;;;;-2.31;100.00;68241.91;5272845;33;34266;-84
2023/12/19 05:38:05;;;;;;;20.88;9.80;;;;;;;-2.27;100.00;68298.25;5272840;33;33332;-85
2023/12/19 05:41:14;;;;;;;24.37;11.52;;;;;;;-2.17;100.00;68309.75;5271669;33;34035;-84
2023/12/19 05:44:18;;;;;;;27.45;10.68;;;;;;;-2.11;100.00;68258.50;5272457;33;33078;-88
2023/12/19 05:47:21;;;;;;;24.15;11.23;;;;;;;-2.11;100.00;68316.63;5260130;33;33926;-89
2023/12/19 05:50:24;;;;;;;26.33;11.20;;;;;;;-2.13;100.00;68258.84;5263699;33;33992;-89
2023/12/19 05:53:27;;;;;;;27.92;11.20;;;;;;;-2.15;100.00;68254.47;5271532;33;33243;-85
2023/12/19 05:56:31;;;;;;;23.62;12.10;;;;;;;-2.02;100.00;68270.88;5268050;33;33480;-85
2023/12/19 05:59:34;;;;;;;20.25;10.70;;;;;;;-2.08;100.00;68267.78;5271311;33;34207;-85
2023/12/19 06:02:37;;;;;;;25.10;11.50;;;;;;;-2.01;100.00;68270.00;5271424;33;33356;-85
2023/12/19 06:05:40;;;;;;;24.83;10.35;;;;;;;-1.95;100.00;68279.50;5272872;33;33467;-84
2023/12/19 06:08:44;;;;;;;28.92;11.48;;;;;;;-1.90;100.00;68285.25;5280248;33;34814;-85
2023/12/19 06:11:47;;;;;;;22.75;11.25;;;;;;;-1.94;100.00;68280.09;5288687;33;34830;-84
2023/12/19 06:14:50;;;;;;;24.20;10.73;;;;;;;-2.06;100.00;68266.88;5285308;33;33332;-85
2023/12/19 06:17:53;;;;;;;24.12;10.68;;;;;;;-2.06;100.00;68267.44;5285128;33;33515;-84
2023/12/19 06:20:56;;;;;;;22.37;11.55;;;;;;;-1.98;100.00;68275.50;5283839;33;33639;-85
2023/12/19 06:24:00;;;;;;;24.37;12.37;;;;;;;-1.97;100.00;68274.59;5272283;33;34290;-85
2023/12/19 06:27:03;;;;;;;25.23;11.80;;;;;;;-2.03;100.00;68327.88;5283111;33;33483;-85
2023/12/19 06:30:08;;;;;;;26.05;11.75;;;;;;;-2.04;100.00;68271.22;5283242;33;33891;-85
2023/12/19 06:33:25;;;;;;;23.85;11.98;;;;;;;-2.15;100.00;68259.16;5282988;33;34021;-85
2023/12/19 06:36:32;;;;;;;28.55;12.82;;;;;;;-2.12;100.00;68259.97;5281887;33;34235;-85
2023/12/19 06:39:36;;;;;;;24.95;12.10;;;;;;;-2.08;100.00;68320.09;5272259;33;34284;-85
2023/12/19 06:42:40;;;;;;;27.62;13.00;;;;;;;-2.04;100.00;68269.16;5260295;33;33149;-85
2023/12/19 06:45:43;;;;;;;23.73;10.73;;;;;;;-1.97;100.00;68277.22;5282415;33;33473;-85
2023/12/19 06:48:47;;;;;;;23.60;11.45;;;;;;;-1.89;100.00;68291.63;5282091;33;32883;-85
2023/12/19 06:51:51;;;;;;;26.60;12.13;;;;;;;-1.88;100.00;68341.94;5272077;33;34402;-85
2023/12/19 06:54:54;;;;;;;31.37;12.45;;;;;;;-1.85;100.00;68293.03;5272623;33;33087;-84
2023/12/19 06:57:57;;;;;;;28.20;12.37;;;;;;;-1.80;100.00;68353.19;5260039;33;33675;-85
2023/12/19 07:01:00;;;;;;;28.95;12.65;;;;;;;-1.89;100.00;68289.03;5270948;33;33658;-85
2023/12/19 07:04:03;;;;;;;27.00;12.93;;;;;;;-1.89;100.00;68285.84;5258698;33;33294;-85
2023/12/19 07:07:09;;;;;;;25.65;11.57;;;;;;;-1.94;100.00;68280.66;5272077;33;32187;-85
2023/12/19 07:10:12;;;;;;;33.65;13.25;;;;;;;-1.73;100.00;68303.63;5281698;33;33791;-85
2023/12/19 07:13:16;;;;;;;29.73;13.10;;;;;;;-1.80;100.00;68293.56;5281521;33;33135;-85
2023/12/19 07:16:19;;;;;;;27.62;12.18;;;;;;;-1.93;100.00;68281.22;5282340;33;32944;-85
2023/12/19 07:19:22;;;;;;;28.17;12.48;;;;;;;-1.87;100.00;68288.72;5271442;33;33304;-85
2023/12/19 07:22:25;;;;;;;34.17;14.10;;;;;;;-1.90;100.00;68282.06;5268738;33;33432;-84
2023/12/19 07:25:28;;;;;;;24.83;12.20;;;;;;;-1.90;100.00;68282.06;5269917;33;34078;-85
2023/12/19 07:28:31;;;;;;;27.42;13.90;;;;;;;-1.81;100.00;68295.03;5268901;33;33405;-85
2023/12/19 07:31:34;;;;;;;32.80;14.32;;;;;;;-1.80;100.00;68295.59;5281607;33;33019;-84
2023/12/19 07:34:37;;;;;;;32.50;13.13;;;;;;;-1.97;100.00;68276.63;5271980;33;33903;-85
2023/12/19 07:37:40;;;;;;;28.35;12.15;;;;;;;-1.91;100.00;68284.09;5271220;33;34103;-85
2023/12/19 07:40:43;;;;;;;24.08;12.85;;;;;;;-1.68;100.00;68312.00;5272476;33;33449;-85
2023/12/19 07:43:47;;;;;;;28.33;12.50;;;;;;;-1.56;100.00;68322.59;5258565;33;32992;-84
2023/12/19 07:46:51;;;;;;;30.52;13.55;;;;;;;-1.58;100.00;68322.91;5272009;33;34282;-89
2023/12/19 07:49:54;;;;;;;27.92;13.52;;;;;;;-1.63;100.00;68320.38;5264681;33;33572;-89
2023/12/19 07:52:57;;;;;;;25.85;12.30;;;;;;;-1.63;100.00;68313.09;5258451;33;34031;-89
2023/12/19 07:56:04;;;;;;;34.67;14.90;;;;;;;-1.53;100.00;68328.69;5286363;33;34168;-86
2023/12/19 07:59:07;;;;;;;28.42;13.23;;;;;;;-1.49;100.00;68328.03;5280355;33;33462;-85
2023/12/19 08:02:11;;;;;;;35.85;14.32;;;;;;;-1.43;100.00;68395.19;5260494;33;33412;-85
2023/12/19 08:05:14;;;;;;;30.50;13.62;;;;;;;-1.56;100.00;68322.59;5278514;33;33350;-85
2023/12/19 08:08:17;;;;;;;27.50;13.85;;;;;;;-1.51;100.00;68328.94;5274658;33;34270;-85
2023/12/19 08:11:20;;;;;;;33.58;15.68;;;;;;;-1.42;100.00;68336.09;5270656;33;32962;-85
2023/12/19 08:14:23;;;;;;;31.85;13.70;;;;;;;-1.53;100.00;68326.06;5283956;33;32246;-85
2023/12/19 08:17:26;;;;;;;34.75;14.13;;;;;;;-1.48;100.00;68332.38;5271817;33;33116;-85
2023/12/19 08:20:29;;;;;;;29.12;13.13;;;;;;;-1.39;100.00;68342.16;5278574;33;33323;-84
2023/12/19 08:23:32;;;;;;;29.73;14.30;;;;;;;-1.28;100.00;68352.19;5281357;33;34377;-85
2023/12/19 08:26:35;;;;;;;28.98;14.30;;;;;;;-1.29;100.00;68353.06;5280800;33;33008;-85
2023/12/19 08:29:39;;;;;;;27.23;13.30;;;;;;;-1.31;100.00;68353.41;5280890;33;33759;-85
2023/12/19 08:32:42;;;;;;;33.70;14.55;;;;;;;-1.35;100.00;68346.19;5281262;33;33821;-85
2023/12/19 08:35:46;;;;;;;29.98;14.25;;;;;;;-1.21;100.00;68359.66;5269984;33;34228;-85
2023/12/19 08:38:49;;;;;;;29.85;13.60;;;;;;;-1.17;100.00;68366.88;5257477;33;33461;-85
2023/12/19 08:41:52;;;;;;;30.75;12.93;;;;;;;-1.13;100.00;68371.47;5283441;33;33231;-85
2023/12/19 08:44:55;;;;;;;29.37;12.80;;;;;;;-1.28;100.00;68354.25;5283070;33;34085;-85
2023/12/19 08:47:59;;;;;;;30.08;13.68;;;;;;;-1.19;100.00;68361.97;5283053;33;33637;-85
2023/12/19 08:51:04;;;;;;;35.83;14.43;;;;;;;-1.11;100.00;68375.81;5282434;33;34168;-85
2023/12/19 08:54:07;;;;;;;34.85;14.30;;;;;;;-1.05;100.00;68382.72;5260895;33;33502;-84
2023/12/19 08:57:10;;;;;;;35.35;14.85;;;;;;;-0.88;100.00;68402.28;5273990;33;34722;-87
2023/12/19 09:00:20;;;;;;;34.55;14.35;;;;;;;-0.82;100.00;68406.56;5273340;33;34342;-86
2023/12/19 09:03:23;;;;;;;36.22;14.68;;;;;;;-0.80;100.00;68408.28;5283899;33;33582;-85
2023/12/19 09:06:27;;;;;;;27.92;13.43;;;;;;;-0.99;100.00;68387.59;5282641;33;33524;-84
2023/12/19 09:09:30;;;;;;;30.67;15.35;;;;;;;-1.03;100.00;68382.41;5284319;33;33425;-84
2023/12/19 09:12:34;;;;;;;31.35;13.15;;;;;;;-0.96;100.00;68393.09;5284433;33;33105;-85
2023/12/19 09:15:37;;;;;;;33.33;12.37;;;;;;;-0.91;100.00;68396.19;5277965;33;34088;-85
2023/12/19 09:18:40;;;;;;;37.83;14.43;;;;;;;-0.96;100.00;68390.47;5273586;33;34327;-85
2023/12/19 09:21:43;;;;;;;37.88;16.15;;;;;;;-0.93;100.00;68396.53;5262222;33;33178;-85
2023/12/19 09:24:47;;;;;;;31.02;15.05;;;;;;;-0.89;100.00;68453.00;5276275;33;34710;-86
2023/12/19 09:27:50;;;;;;;33.90;15.57;;;;;;;-0.90;100.00;68394.75;5276306;33;34136;-85
2023/12/19 09:30:53;;;;;;;40.85;15.38;;;;;;;-0.80;100.00;68411.47;5285397;33;33872;-86
2023/12/19 09:33:56;;;;;;;37.03;16.08;;;;;;;-0.74;100.00;68415.19;5286116;33;34098;-85
2023/12/19 09:37:00;;;;;;;37.30;15.43;;;;;;;-0.77;100.00;68414.34;5285694;33;33435;-85
2023/12/19 09:40:03;;;;;;;33.78;15.52;;;;;;;-0.74;100.00;68415.75;5284173;33;33650;-85
2023/12/19 09:43:09;;;;;;;37.47;16.65;;;;;;;-0.69;100.00;68418.31;5275874;33;34369;-85
2023/12/19 09:46:13;;;;;;;44.95;15.98;;;;;;;-0.61;100.00;68432.19;5274168;33;33383;-85
2023/12/19 09:49:20;;;;;;;38.78;16.83;;;;;;;-0.68;100.00;68422.09;5282318;33;34429;-85
2023/12/19 09:52:27;;;;;;;33.90;15.93;;;;;;;-0.64;100.00;68426.09;5271895;33;33521;-90
2023/12/19 09:55:30;;;;;;;27.67;13.55;;;;;;;-0.75;100.00;68414.03;5272540;33;33581;-90
2023/12/19 09:58:35;;;;;;;37.28;16.08;;;;;;;-0.68;100.00;68422.66;5283185;33;34223;-85
2023/12/19 10:01:38;;;;;;;32.53;16.00;;;;;;;-0.87;100.00;68400.25;5273339;33;32994;-86
2023/12/19 10:04:41;;;;;;;31.10;15.35;;;;;;;-0.79;100.00;68412.66;5273770;33;34262;-85
2023/12/19 10:07:47;;;;;;;38.55;15.98;;;;;;;-0.69;100.00;68420.94;5274189;33;34042;-84
2023/12/19 10:10:50;;;;;;;34.67;15.15;;;;;;;-0.55;100.00;68439.69;5262495;33;33491;-85
2023/12/19 10:14:09;;;;;;;37.15;16.20;;;;;;;-0.53;100.00;68497.06;5271194;33;34279;-85
2023/12/19 10:17:15;;;;;;;46.60;15.80;;;;;;;-0.42;100.00;68450.84;5271454;33;33334;-85
2023/12/19 10:20:20;;;;;;;35.28;16.62;;;;;;;-0.62;100.00;68486.13;5271467;33;34653;-85
2023/12/19 10:23:23;;;;;;;36.85;15.48;;;;;;;-0.69;100.00;68421.50;5258804;33;33089;-85
2023/12/19 10:26:29;;;;;;;37.58;15.90;;;;;;;-0.81;100.00;68407.72;5281704;33;33360;-85
2023/12/19 10:29:36;;;;;;;36.78;16.87;;;;;;;-0.68;100.00;68420.03;5282140;33;33752;-85
2023/12/19 10:32:40;;;;;;;36.13;15.60;;;;;;;-0.80;100.00;68406.22;5271615;33;34216;-84
2023/12/19 10:35:44;;;;;;;35.15;16.40;;;;;;;-0.84;100.00;68406.88;5282680;33;32995;-84
2023/12/19 10:38:48;;;;;;;36.08;15.35;;;;;;;-0.72;100.00;68418.06;5259714;33;33600;-85
2023/12/19 10:42:04;;;;;;;31.23;15.18;;;;;;;-0.81;100.00;68409.75;5271847;33;33209;-84
2023/12/19 10:45:08;;;;;;;35.92;14.95;;;;;;;-0.58;100.00;68433.03;5269642;33;33390;-84
2023/12/19 10:48:11;;;;;;;36.15;16.42;;;;;;;-0.48;100.00;68442.47;5269362;33;34088;-85
2023/12/19 10:51:20;;;;;;;32.22;15.00;;;;;;;-0.47;100.00;68446.25;5258926;33;33778;-84
2023/12/19 10:54:25;;;;;;;31.62;15.73;;;;;;;-0.49;100.00;68443.38;5270706;33;34001;-85
2023/12/19 10:57:34;;;;;;;39.90;15.73;;;;;;;-0.60;100.00;68431.28;5269478;33;34141;-85
2023/12/19 11:00:41;;;;;;;32.28;14.45;;;;;;;-0.61;100.00;68427.53;5272645;33;33623;-85
2023/12/19 11:03:51;;;;;;;35.65;15.48;;;;;;;-0.51;100.00;68499.38;5280666;33;34454;-85
2023/12/19 11:06:59;;;;;;;36.72;15.80;;;;;;;-0.59;100.00;68487.53;5271212;33;33405;-85
2023/12/19 11:10:06;;;;;;;30.62;14.98;;;;;;;-0.57;100.00;68434.75;5271039;33;32662;-84
2023/12/19 11:13:11;;;;;;;36.25;16.00;;;;;;;-0.74;100.00;68417.81;5270876;33;33381;-85
2023/12/19 11:16:32;;;;;;;33.97;16.27;;;;;;;-0.40;100.00;68450.53;5282124;33;33502;-85
2023/12/19 11:19:45;;;;;;;39.30;16.77;;;;;;;-0.31;100.00;68466.72;5272420;33;33436;-85
2023/12/19 11:23:16;;;;;;;34.72;14.40;;;;;;;-0.30;100.00;68464.66;5281727;33;34069;-85
2023/12/19 11:26:32;;;;;;;41.35;16.12;;;;;;;-0.38;100.00;68513.19;5268732;33;33854;-85
2023/12/19 11:29:45;;;;;;;37.55;16.42;;;;;;;-0.39;100.00;68457.50;5270926;33;33569;-85
2023/12/19 11:32:49;;;;;;;38.10;17.05;;;;;;;-0.50;100.00;68445.44;5270309;33;33611;-85
2023/12/19 11:35:52;;;;;;;35.03;15.85;;;;;;;-0.40;100.00;68453.16;5271029;33;33455;-84
2023/12/19 11:39:24;;;;;;;37.13;15.85;;;;;;;-0.30;100.00;68467.28;5282483;33;33392;-84
2023/12/19 11:42:39;;;;;;;40.80;16.25;;;;;;;-0.29;100.00;68463.78;5271634;33;33431;-83
2023/12/19 11:45:43;;;;;;;45.40;18.40;;;;;;;-0.26;100.00;68467.22;5273071;33;32955;-83
2023/12/19 11:48:51;;;;;;;36.42;16.62;;;;;;;-0.36;100.00;68455.72;5268050;33;34141;-84
2023/12/19 11:51:55;;;;;;;38.55;16.50;;;;;;;-0.40;100.00;68456.38;5270746;33;34384;-86
2023/12/19 11:55:02;;;;;;;45.10;18.15;;;;;;;-0.45;100.00;68447.97;5283636;33;33893;-89
2023/12/19 11:58:14;;;;;;;39.63;16.40;;;;;;;-0.42;100.00;68451.44;5273795;33;34921;-86
2023/12/19 12:01:19;;;;;;;39.45;17.75;;;;;;;-0.34;100.00;68457.44;5275305;33;34011;-85
2023/12/19 12:04:23;;;;;;;43.15;16.17;;;;;;;-0.41;100.00;68452.00;5278467;33;32984;-84
2023/12/19 12:07:26;;;;;;;37.78;16.77;;;;;;;-0.47;100.00;68450.91;5273368;33;33211;-84
2023/12/19 12:10:30;;;;;;;33.92;14.60;;;;;;;-0.57;100.00;68431.56;5271993;33;33734;-84
2023/12/19 12:13:36;;;;;;;43.70;19.00;;;;;;;-0.42;100.00;68451.44;5269776;33;33169;-85
2023/12/19 12:16:40;;;;;;;45.83;18.12;;;;;;;-0.44;100.00;68448.56;5270419;33;33383;-85
2023/12/19 12:19:43;;;;;;;46.67;19.92;;;;;;;-0.39;100.00;68457.50;5272075;33;33594;-84
2023/12/19 12:22:46;;;;;;;42.47;17.23;;;;;;;-0.41;100.00;68509.72;5260582;33;32926;-85
2023/12/19 12:25:55;;;;;;;37.60;17.85;;;;;;;-0.25;100.00;68528.75;5286160;33;33387;-84
2023/12/19 12:28:58;;;;;;;38.53;19.08;;;;;;;-0.16;100.00;68477.59;5274453;33;34129;-85
2023/12/19 12:32:02;;;;;;;41.75;17.98;;;;;;;-0.21;100.00;68477.06;5284351;33;34807;-84
2023/12/19 12:35:35;;;;;;;45.22;18.87;;;;;;;-0.15;100.00;68481.34;5272767;33;33441;-85
2023/12/19 12:38:37;;;;;;;41.22;17.67;;;;;;;-0.40;100.00;68456.38;5272484;33;33537;-85
2023/12/19 12:41:41;;;;;;;42.22;17.77;;;;;;;-0.44;100.00;68445.94;5261042;33;33156;-85
2023/12/19 12:44:44;;;;;;;46.67;18.02;;;;;;;-0.59;100.00;68434.50;5273467;33;33441;-85
2023/12/19 12:47:49;;;;;;;45.60;19.00;;;;;;;-0.41;100.00;68452.00;5272929;33;33074;-85
2023/12/19 12:50:55;;;;;;;43.78;18.35;;;;;;;-0.47;100.00;68445.66;5260011;33;33535;-85
2023/12/19 12:54:00;;;;;;;36.38;16.90;;;;;;;-0.44;100.00;68448.56;5274422;33;33471;-85
2023/12/19 12:57:11;;;;;;;45.88;18.37;;;;;;;-0.42;100.00;68453.47;5283519;33;33432;-85
2023/12/19 13:00:15;;;;;;;42.92;18.50;;;;;;;-0.38;100.00;68458.66;5275978;33;33461;-85
2023/12/19 13:03:29;;;;;;;44.05;18.98;;;;;;;-0.30;100.00;68522.97;5267852;33;33246;-85
2023/12/19 13:06:43;;;;;;;38.97;17.87;;;;;;;-0.48;100.00;68442.47;5284502;33;33480;-84
2023/12/19 13:09:46;;;;;;;36.67;17.10;;;;;;;-0.38;100.00;68456.03;5276743;33;33651;-89
2023/12/19 13:12:50;;;;;;;40.35;19.17;;;;;;;-0.34;100.00;68462.69;5261981;33;33374;-89
2023/12/19 13:15:53;;;;;;;34.22;17.70;;;;;;;-0.35;100.00;68458.91;5261392;33;34213;-86
2023/12/19 13:18:56;;;;;;;39.40;18.77;;;;;;;-0.29;100.00;68469.03;5275025;33;33328;-85
2023/12/19 13:21:59;;;;;;;35.13;17.23;;;;;;;-0.29;100.00;68468.47;5274272;33;33441;-86
2023/12/19 13:25:04;;;;;;;42.33;19.15;;;;;;;-0.34;100.00;68460.66;5260732;33;33461;-85
2023/12/19 13:28:10;;;;;;;37.35;16.65;;;;;;;-0.36;100.00;68457.75;5274920;33;34162;-85
2023/12/19 13:31:15;;;;;;;36.20;17.33;;;;;;;-0.57;100.00;68434.75;5272913;33;33503;-85
2023/12/19 13:34:18;;;;;;;41.17;18.62;;;;;;;-0.44;100.00;68448.56;5284318;33;33645;-85
2023/12/19 13:37:22;;;;;;;42.20;18.27;;;;;;;-0.42;100.00;68451.44;5261565;33;33695;-85
2023/12/19 13:40:27;;;;;;;38.40;16.02;;;;;;;-0.43;100.00;68447.66;5253778;33;34106;-85
2023/12/19 13:43:30;;;;;;;47.92;17.83;;;;;;;-0.43;100.00;68450.28;5283835;33;33364;-85
2023/12/19 13:46:33;;;;;;;45.50;17.33;;;;;;;-0.44;100.00;68451.19;5265665;33;33266;-86
2023/12/19 13:49:36;;;;;;;46.15;18.42;;;;;;;-0.65;100.00;68428.16;5254575;33;34284;-86
2023/12/19 13:52:42;;;;;;;40.60;16.80;;;;;;;-0.70;100.00;68417.75;5296853;33;33428;-86
2023/12/19 13:55:45;;;;;;;42.33;18.02;;;;;;;-0.76;100.00;68412.88;5280297;33;33574;-85
2023/12/19 13:58:48;;;;;;;44.00;17.17;;;;;;;-0.62;100.00;68486.13;5265606;33;33769;-85
2023/12/19 14:01:52;;;;;;;36.72;16.30;;;;;;;-0.66;100.00;68481.53;5270271;33;33557;-85
2023/12/19 14:04:55;;;;;;;44.33;17.42;;;;;;;-0.68;100.00;68477.16;5292255;33;33607;-85
2023/12/19 14:08:01;;;;;;;40.20;16.30;;;;;;;-0.68;100.00;68419.47;5278374;33;33505;-85
2023/12/19 14:11:05;;;;;;;47.15;19.02;;;;;;;-0.68;100.00;68425.28;5289739;33;33185;-85
2023/12/19 14:14:09;;;;;;;37.42;18.30;;;;;;;-0.60;100.00;68433.34;5289334;33;34439;-85
2023/12/19 14:17:12;;;;;;;47.55;18.80;;;;;;;-0.75;100.00;68416.66;5291591;33;33036;-86
2023/12/19 14:20:15;;;;;;;43.38;18.30;;;;;;;-0.81;100.00;68462.78;5289876;33;32957;-86
2023/12/19 14:23:19;;;;;;;44.97;18.67;;;;;;;-0.89;100.00;68397.94;5290602;33;33442;-86
2023/12/19 14:26:21;;;;;;;61.45;19.12;;;;;;;-0.97;100.00;68389.88;5289469;33;33482;-86
2023/12/19 14:29:24;;;;;;;48.05;19.67;;;;;;;-0.88;100.00;68399.06;5291465;33;34033;-86
2023/12/19 14:32:28;;;;;;;49.50;19.25;;;;;;;-0.80;100.00;68410.91;5277882;33;33906;-85
2023/12/19 14:35:32;;;;;;;44.17;17.60;;;;;;;-0.90;100.00;68397.38;5278129;33;33843;-86
2023/12/19 14:38:34;;;;;;;47.70;18.10;;;;;;;-0.89;100.00;68400.56;5276529;33;33451;-85
2023/12/19 14:41:40;;;;;;;42.15;17.62;;;;;;;-0.81;100.00;68407.72;5275064;33;33369;-86
2023/12/19 14:44:44;;;;;;;44.28;17.27;;;;;;;-0.99;100.00;68387.59;5283553;33;33795;-86
2023/12/19 14:47:47;;;;;;;44.05;18.20;;;;;;;-1.02;100.00;68381.50;5269712;33;33496;-86
2023/12/19 14:50:51;;;;;;;45.17;16.87;;;;;;;-0.90;100.00;68397.38;5274715;33;33638;-86
2023/12/19 14:53:56;;;;;;;56.90;17.55;;;;;;;-0.95;100.00;68392.19;5271561;33;33605;-86
2023/12/19 14:56:59;;;;;;;49.20;17.70;;;;;;;-0.89;100.00;68455.63;5270981;33;33347;-86
2023/12/19 15:00:05;;;;;;;53.55;18.45;;;;;;;-1.06;100.00;68379.53;5258271;33;33525;-86
2023/12/19 15:03:08;;;;;;;56.80;18.80;;;;;;;-1.00;100.00;68444.09;5253913;33;33110;-86
2023/12/19 15:06:11;;;;;;;41.78;16.75;;;;;;;-0.88;100.00;68399.66;5241694;33;33803;-86
2023/12/19 15:09:18;;;;;;;56.70;20.37;;;;;;;-0.92;100.00;68397.69;5255084;33;34140;-90
2023/12/19 15:12:21;;;;;;;56.47;19.15;;;;;;;-0.97;100.00;68386.69;5243141;33;33258;-90
2023/12/19 15:15:25;;;;;;;52.55;19.98;;;;;;;-1.20;100.00;68364.00;5254202;33;33399;-87
2023/12/19 15:18:28;;;;;;;53.13;17.37;;;;;;;-1.26;100.00;68354.47;5254238;33;33506;-87
2023/12/19 15:21:40;;;;;;;47.08;17.62;;;;;;;-1.21;100.00;68365.47;5256642;33;33904;-86
2023/12/19 15:24:44;;;;;;;48.03;19.15;;;;;;;-1.12;100.00;68372.06;5255482;33;34424;-86
2023/12/19 15:27:47;;;;;;;50.55;19.73;;;;;;;-1.14;100.00;68425.38;5242139;33;34049;-86
2023/12/19 15:30:50;;;;;;;58.85;16.87;;;;;;;-1.15;100.00;68426.81;5249247;33;140716;-86
2023/12/19 15:33:53;;;;;;;37.95;15.77;;;;;;;-1.08;100.00;68431.69;5253966;33;33615;-86
2023/12/19 15:36:57;;;;;;;49.05;14.60;;;;;;;-1.03;100.00;68382.41;5256221;33;33613;-86
2023/12/19 15:40:03;;;;;;;34.85;15.23;;;;;;;-1.10;100.00;68374.34;5250417;33;33073;-86
2023/12/19 15:43:06;;;;;;;35.00;15.93;;;;;;;-0.98;100.00;68388.16;5253982;33;34433;-86
2023/12/19 15:46:09;;;;;;;43.17;15.02;;;;;;;-1.08;100.00;68434.91;5265623;33;34235;-86
2023/12/19 15:49:13;;;;;;;41.72;14.70;;;;;;;-1.10;100.00;68374.34;5261591;33;34387;-86
2023/12/19 15:52:17;;;;;;;45.05;16.37;;;;;;;-1.06;100.00;68379.53;5257389;33;33879;-86
2023/12/19 15:55:20;;;;;;;53.63;15.65;;;;;;;-0.99;100.00;68384.97;5252495;33;33473;-86
2023/12/19 15:58:24;;;;;;;42.17;15.93;;;;;;;-0.96;100.00;68390.47;5270419;33;33535;-86
2023/12/19 16:01:28;;;;;;;52.83;15.13;;;;;;;-0.81;100.00;68407.13;5271566;33;33265;-86
2023/12/19 16:04:32;;;;;;;31.20;13.20;;;;;;;-0.80;100.00;68466.53;5291583;33;34228;-86
2023/12/19 16:07:38;;;;;;;58.00;16.23;;;;;;;-0.88;100.00;68399.06;5279834;33;34613;-87
2023/12/19 16:10:41;;;;;;;45.00;15.25;;;;;;;-0.84;100.00;68461.94;5259824;33;33867;-87
2023/12/19 16:13:45;;;;;;;39.47;15.25;;;;;;;-0.94;100.00;68390.13;5258658;33;33330;-86
2023/12/19 16:16:49;;;;;;;34.13;14.40;;;;;;;-0.98;100.00;68388.72;5281602;33;33502;-86
2023/12/19 16:19:53;;;;;;;41.10;13.93;;;;;;;-0.90;100.00;68396.78;5282692;33;33166;-86
2023/12/19 16:22:56;;;;;;;36.05;14.15;;;;;;;-0.87;100.00;68403.44;5272230;33;33034;-86
2023/12/19 16:25:59;;;;;;;49.78;14.82;;;;;;;-0.87;100.00;68458.50;5272211;33;33032;-86
2023/12/19 16:29:02;;;;;;;40.63;13.88;;;;;;;-0.81;100.00;68405.09;5282533;33;33356;-87
2023/12/19 16:32:05;;;;;;;45.28;15.00;;;;;;;-0.87;100.00;68403.44;5282200;33;34188;-86
2023/12/19 16:35:09;;;;;;;41.88;14.18;;;;;;;-0.82;100.00;68461.63;5282188;33;34320;-87
2023/12/19 16:38:12;;;;;;;55.53;15.85;;;;;;;-0.68;100.00;68420.03;5282058;33;33698;-86
2023/12/19 16:41:17;;;;;;;35.40;14.00;;;;;;;-0.73;100.00;68418.97;5282474;33;33526;-86
2023/12/19 16:44:20;;;;;;;42.58;14.52;;;;;;;-0.82;100.00;68405.97;5271689;33;33200;-87
2023/12/19 16:47:23;;;;;;;39.42;12.52;;;;;;;-0.92;100.00;68397.69;5282222;33;33136;-84
2023/12/19 16:50:26;;;;;;;33.15;14.10;;;;;;;-0.91;100.00;68401.44;5283797;33;34472;-85
2023/12/19 16:53:30;;;;;;;37.40;14.13;;;;;;;-0.85;100.00;68405.16;5282969;33;34366;-84
